createdAt,value
2023-01-29T00:01:57.260Z,3.00
2023-01-29T00:04:26.804Z,2.67
2023-01-29T00:06:54.717Z,2.88
2023-01-29T00:09:22.762Z,3.00
2023-01-29T00:11:50.554Z,3.28
2023-01-29T00:14:18.347Z,3.17
2023-01-29T00:16:46.154Z,3.05
2023-01-29T00:19:13.973Z,2.90
2023-01-29T00:21:43.715Z,3.20
2023-01-29T00:24:11.710Z,3.53
2023-01-29T00:26:40.217Z,2.97
2023-01-29T00:29:07.981Z,3.13
2023-01-29T00:31:36.236Z,2.90
2023-01-29T00:34:04.297Z,3.30
2023-01-29T00:36:32.117Z,3.00
2023-01-29T00:39:03.558Z,2.90
2023-01-29T00:41:51.099Z,3.13
2023-01-29T00:44:37.435Z,3.00
2023-01-29T00:47:26.165Z,3.47
2023-01-29T00:49:54.017Z,3.10
2023-01-29T00:52:30.821Z,3.00
2023-01-29T00:55:01.072Z,2.80
2023-01-29T00:57:31.133Z,3.00
2023-01-29T00:59:59.181Z,3.00
2023-01-29T01:02:45.133Z,3.10
2023-01-29T01:05:18.057Z,3.33
2023-01-29T01:07:47.286Z,2.70
2023-01-29T01:10:24.288Z,3.35
2023-01-29T01:12:56.310Z,3.13
2023-01-29T01:15:24.638Z,3.42
2023-01-29T01:17:56.949Z,2.95
2023-01-29T01:20:25.450Z,3.30
2023-01-29T01:22:55.087Z,3.53
2023-01-29T01:25:25.655Z,2.80
2023-01-29T01:27:54.466Z,3.28
2023-01-29T01:30:23.073Z,3.03
2023-01-29T01:32:51.200Z,3.17
2023-01-29T01:35:19.270Z,3.08
2023-01-29T01:37:47.117Z,3.38
2023-01-29T01:40:18.398Z,3.15
2023-01-29T01:42:50.217Z,3.03
2023-01-29T01:45:25.815Z,3.10
2023-01-29T01:47:57.312Z,3.03
2023-01-29T01:50:30.619Z,3.03
2023-01-29T01:53:03.537Z,2.80
2023-01-29T01:55:34.363Z,3.00
2023-01-29T01:58:09.469Z,2.95
2023-01-29T02:00:37.630Z,3.20
2023-01-29T02:03:23.626Z,2.80
2023-01-29T02:06:12.077Z,3.03
2023-01-29T02:09:05.288Z,3.28
2023-01-29T02:11:33.156Z,3.15
2023-01-29T02:14:02.322Z,3.10
2023-01-29T02:16:30.485Z,3.00
2023-01-29T02:18:58.415Z,3.58
2023-01-29T02:21:47.336Z,3.25
2023-01-29T02:24:43.623Z,3.17
2023-01-29T02:27:16.156Z,2.95
2023-01-29T02:29:54.622Z,3.22
2023-01-29T02:35:32.895Z,3.17
2023-01-29T02:38:13.970Z,3.22
2023-01-29T02:40:46.926Z,3.85
2023-01-29T02:43:29.071Z,3.22
2023-01-29T02:46:08.192Z,2.97
2023-01-29T02:48:43.959Z,3.13
2023-01-29T02:51:20.435Z,3.15
2023-01-29T02:53:56.910Z,3.38
2023-01-29T02:56:33.294Z,3.17
2023-01-29T02:59:06.109Z,3.25
2023-01-29T03:01:39.897Z,3.28
2023-01-29T03:04:12.354Z,3.05
2023-01-29T03:06:46.272Z,3.40
2023-01-29T03:09:21.753Z,3.03
2023-01-29T03:11:54.026Z,2.90
2023-01-29T03:14:49.940Z,2.95
2023-01-29T03:17:18.474Z,3.17
2023-01-29T03:19:49.577Z,3.55
2023-01-29T03:22:21.988Z,3.40
2023-01-29T03:25:58.103Z,3.40
2023-01-29T03:28:45.217Z,3.05
2023-01-29T03:31:34.269Z,3.25
2023-01-29T03:34:08.246Z,3.03
2023-01-29T03:36:45.509Z,3.13
2023-01-29T03:39:16.692Z,3.47
2023-01-29T03:41:50.491Z,4.03
2023-01-29T03:44:24.965Z,3.85
2023-01-29T03:46:58.824Z,3.78
2023-01-29T03:49:33.475Z,3.42
2023-01-29T03:52:10.304Z,3.63
2023-01-29T03:54:50.124Z,3.38
2023-01-29T03:57:27.699Z,3.63
2023-01-29T04:00:04.501Z,4.07
2023-01-29T04:02:39.911Z,3.70
2023-01-29T04:05:13.345Z,3.92
2023-01-29T04:07:45.279Z,3.85
2023-01-29T04:10:20.083Z,4.18
2023-01-29T04:12:52.370Z,4.22
2023-01-29T04:15:23.642Z,4.30
2023-01-29T04:17:53.770Z,4.00
2023-01-29T04:20:22.331Z,3.83
2023-01-29T04:22:52.645Z,4.18
2023-01-29T04:25:29.117Z,4.63
2023-01-29T04:28:06.098Z,4.90
2023-01-29T04:30:43.776Z,4.50
2023-01-29T04:33:23.267Z,4.35
2023-01-29T04:36:10.987Z,4.82
2023-01-29T04:38:48.748Z,4.45
2023-01-29T04:41:24.380Z,4.55
2023-01-29T04:44:01.689Z,4.88
2023-01-29T04:46:37.227Z,4.65
2023-01-29T04:49:18.799Z,5.45
2023-01-29T04:51:52.924Z,4.07
2023-01-29T04:54:33.740Z,4.53
2023-01-29T04:57:11.233Z,4.40
2023-01-29T04:59:43.739Z,4.32
2023-01-29T05:02:13.565Z,4.45
2023-01-29T05:04:45.533Z,4.65
2023-01-29T05:07:16.006Z,4.97
2023-01-29T05:09:46.139Z,4.22
2023-01-29T05:12:18.602Z,4.10
2023-01-29T05:14:49.032Z,4.40
2023-01-29T05:17:19.565Z,4.28
2023-01-29T05:19:48.306Z,4.95
2023-01-29T05:22:22.710Z,4.03
2023-01-29T05:24:51.072Z,5.28
2023-01-29T05:27:41.874Z,4.20
2023-01-29T05:30:11.502Z,4.70
2023-01-29T05:32:39.796Z,5.05
2023-01-29T05:35:08.300Z,4.55
2023-01-29T05:37:36.130Z,4.65
2023-01-29T05:40:04.416Z,4.78
2023-01-29T05:42:34.212Z,4.82
2023-01-29T05:45:02.486Z,4.88
2023-01-29T05:47:30.543Z,5.25
2023-01-29T05:49:58.490Z,5.28
2023-01-29T05:52:26.663Z,4.60
2023-01-29T05:54:54.614Z,4.45
2023-01-29T05:57:22.584Z,4.50
2023-01-29T05:59:51.787Z,4.50
2023-01-29T06:02:19.705Z,5.57
2023-01-29T06:04:47.746Z,3.90
2023-01-29T06:07:15.739Z,5.95
2023-01-29T06:09:43.608Z,5.28
2023-01-29T06:12:11.638Z,4.90
2023-01-29T06:14:39.762Z,4.80
2023-01-29T06:17:09.087Z,4.85
2023-01-29T06:19:37.168Z,5.30
2023-01-29T06:22:05.098Z,4.97
2023-01-29T06:24:33.844Z,5.03
2023-01-29T06:27:01.712Z,4.85
2023-01-29T06:29:29.713Z,4.78
2023-01-29T06:31:57.735Z,5.07
2023-01-29T06:34:27.076Z,5.07
2023-01-29T06:36:55.458Z,4.82
2023-01-29T06:39:23.540Z,4.90
2023-01-29T06:41:51.640Z,5.18
2023-01-29T06:44:19.670Z,4.60
2023-01-29T06:46:47.747Z,4.85
2023-01-29T06:49:15.969Z,5.45
2023-01-29T06:51:45.203Z,4.45
2023-01-29T06:54:13.164Z,4.65
2023-01-29T06:56:41.043Z,4.50
2023-01-29T06:59:08.904Z,4.88
2023-01-29T07:01:41.112Z,4.53
2023-01-29T07:04:09.038Z,4.93
2023-01-29T07:06:37.153Z,4.68
2023-01-29T07:09:06.796Z,5.32
2023-01-29T07:11:37.861Z,5.10
2023-01-29T07:14:06.153Z,4.68
2023-01-29T07:16:35.074Z,4.63
2023-01-29T07:19:03.085Z,4.43
2023-01-29T07:21:30.965Z,4.63
2023-01-29T07:23:58.846Z,4.53
2023-01-29T07:26:28.136Z,4.88
2023-01-29T07:28:55.974Z,4.80
2023-01-29T07:31:24.082Z,4.60
2023-01-29T07:33:52.544Z,4.80
2023-01-29T07:36:21.933Z,4.60
2023-01-29T07:38:50.647Z,4.38
2023-01-29T07:41:18.726Z,4.97
2023-01-29T07:43:47.854Z,5.38
2023-01-29T07:46:15.903Z,4.97
2023-01-29T07:48:43.677Z,4.97
2023-01-29T07:51:11.462Z,4.60
2023-01-29T07:53:39.312Z,4.40
2023-01-29T07:56:07.508Z,4.70
2023-01-29T07:58:36.735Z,4.35
2023-01-29T08:01:08.610Z,4.57
2023-01-29T08:03:36.922Z,4.85
2023-01-29T08:06:05.750Z,4.55
2023-01-29T08:08:33.891Z,4.30
2023-01-29T08:11:03.439Z,4.30
2023-01-29T08:13:31.662Z,4.85
2023-01-29T08:16:01.878Z,4.55
2023-01-29T08:18:32.307Z,4.53
2023-01-29T08:21:01.080Z,4.18
2023-01-29T08:23:28.984Z,4.70
2023-01-29T08:25:56.909Z,4.55
2023-01-29T08:28:24.877Z,4.22
2023-01-29T08:30:52.802Z,4.40
2023-01-29T08:33:29.895Z,4.28
2023-01-29T08:36:02.660Z,4.10
2023-01-29T08:38:30.479Z,3.58
2023-01-29T08:40:58.283Z,3.70
2023-01-29T08:43:26.220Z,4.40
2023-01-29T08:45:54.138Z,4.05
2023-01-29T08:48:22.159Z,3.85
2023-01-29T08:50:50.072Z,4.00
2023-01-29T08:53:24.389Z,4.03
2023-01-29T08:55:52.471Z,3.47
2023-01-29T08:58:20.464Z,3.63
2023-01-29T09:00:48.396Z,3.47
2023-01-29T09:03:16.425Z,3.45
2023-01-29T09:05:44.304Z,3.42
2023-01-29T09:08:12.295Z,4.15
2023-01-29T09:10:41.581Z,3.75
2023-01-29T09:13:09.476Z,4.15
2023-01-29T09:15:37.353Z,3.85
2023-01-29T09:18:06.231Z,4.22
2023-01-29T09:20:34.146Z,3.72
2023-01-29T09:23:05.592Z,3.28
2023-01-29T09:25:33.615Z,3.75
2023-01-29T09:28:02.907Z,3.38
2023-01-29T09:30:32.021Z,3.45
2023-01-29T09:33:01.908Z,3.88
2023-01-29T09:35:29.777Z,3.70
2023-01-29T09:37:57.540Z,3.30
2023-01-29T09:40:31.809Z,3.30
2023-01-29T09:43:05.446Z,3.03
2023-01-29T09:45:34.315Z,3.75
2023-01-29T09:48:05.763Z,3.55
2023-01-29T09:50:38.438Z,3.20
2023-01-29T09:53:16.495Z,3.28
2023-01-29T09:55:50.571Z,3.65
2023-01-29T09:58:26.434Z,4.05
2023-01-29T10:01:04.115Z,3.50
2023-01-29T10:03:53.292Z,3.25
2023-01-29T10:06:29.210Z,3.38
2023-01-29T10:09:16.091Z,3.30
2023-01-29T10:11:49.234Z,3.10
2023-01-29T10:14:30.877Z,3.22
2023-01-29T10:17:18.183Z,3.10
2023-01-29T10:20:17.089Z,3.00
2023-01-29T10:23:05.209Z,3.08
2023-01-29T10:25:34.971Z,2.63
2023-01-29T10:28:03.024Z,2.90
2023-01-29T10:30:36.556Z,2.90
2023-01-29T10:33:06.797Z,2.67
2023-01-29T10:35:38.456Z,2.90
2023-01-29T10:38:22.265Z,2.85
2023-01-29T10:40:56.035Z,2.95
2023-01-29T10:43:29.426Z,3.28
2023-01-29T10:46:14.130Z,3.45
2023-01-29T10:48:50.039Z,2.72
2023-01-29T10:51:33.585Z,2.60
2023-01-29T10:54:15.850Z,2.70
2023-01-29T10:56:59.836Z,2.45
2023-01-29T10:59:44.153Z,2.58
2023-01-29T11:02:19.620Z,3.03
2023-01-29T11:04:47.949Z,2.60
2023-01-29T11:07:18.663Z,2.67
2023-01-29T11:09:55.295Z,4.22
2023-01-29T11:12:26.600Z,4.30
2023-01-29T11:14:58.025Z,2.67
2023-01-29T11:17:27.778Z,3.50
2023-01-29T11:19:56.713Z,3.03
2023-01-29T11:22:26.353Z,2.97
2023-01-29T11:25:11.249Z,2.40
2023-01-29T11:27:45.464Z,3.13
2023-01-29T11:30:22.561Z,2.65
2023-01-29T11:32:59.080Z,2.63
2023-01-29T11:35:27.880Z,2.70
2023-01-29T11:38:09.424Z,2.10
2023-01-29T11:40:39.850Z,2.40
2023-01-29T11:43:32.095Z,2.70
2023-01-29T11:46:03.641Z,3.00
2023-01-29T11:48:42.916Z,2.90
2023-01-29T11:51:13.888Z,2.30
2023-01-29T11:53:44.699Z,2.47
2023-01-29T11:56:22.885Z,2.55
2023-01-29T11:58:53.299Z,2.47
2023-01-29T12:01:31.240Z,2.28
2023-01-29T12:04:01.925Z,2.25
2023-01-29T12:06:36.061Z,2.78
2023-01-29T12:09:11.737Z,2.65
2023-01-29T12:11:39.574Z,2.78
2023-01-29T12:14:25.594Z,2.25
2023-01-29T12:16:57.655Z,2.80
2023-01-29T12:19:36.254Z,2.42
2023-01-29T12:22:07.531Z,2.67
2023-01-29T12:24:41.162Z,2.55
2023-01-29T12:27:15.823Z,2.80
2023-01-29T12:29:50.551Z,2.25
2023-01-29T12:32:30.809Z,2.72
2023-01-29T12:35:05.090Z,2.20
2023-01-29T12:37:41.874Z,2.53
2023-01-29T12:40:15.553Z,2.03
2023-01-29T12:42:48.446Z,2.42
2023-01-29T12:45:19.844Z,2.33
2023-01-29T12:47:51.402Z,2.25
2023-01-29T12:50:23.084Z,2.28
2023-01-29T12:52:55.106Z,2.53
2023-01-29T12:55:27.202Z,2.40
2023-01-29T12:57:58.577Z,2.70
2023-01-29T13:00:29.382Z,2.50
2023-01-29T13:03:05.055Z,2.38
2023-01-29T13:05:39.630Z,2.47
2023-01-29T13:08:11.798Z,2.17
2023-01-29T13:10:45.166Z,2.22
2023-01-29T13:13:20.361Z,2.40
2023-01-29T13:15:49.093Z,2.80
2023-01-29T13:18:34.103Z,2.70
2023-01-29T13:21:04.544Z,2.55
2023-01-29T13:23:36.501Z,3.08
2023-01-29T13:26:05.702Z,2.35
2023-01-29T13:28:33.763Z,2.70
2023-01-29T13:31:21.707Z,3.20
2023-01-29T13:33:56.402Z,2.90
2023-01-29T13:36:29.255Z,3.00
2023-01-29T13:39:03.176Z,2.50
2023-01-29T13:41:37.058Z,2.72
2023-01-29T13:44:09.144Z,2.40
2023-01-29T13:46:42.258Z,2.88
2023-01-29T13:49:30.291Z,2.70
2023-01-29T13:52:00.778Z,2.80
2023-01-29T13:54:29.079Z,3.50
2023-01-29T13:57:02.655Z,3.10
2023-01-29T13:59:52.171Z,2.40
2023-01-29T14:02:23.987Z,2.60
2023-01-29T14:04:52.385Z,2.70
2023-01-29T14:08:00.222Z,2.30
2023-01-29T14:10:30.935Z,2.10
2023-01-29T14:13:29.418Z,2.10
2023-01-29T14:16:34.727Z,3.05
2023-01-29T14:19:06.580Z,2.70
2023-01-29T14:21:37.068Z,2.17
2023-01-29T14:24:12.972Z,2.60
2023-01-29T14:26:48.217Z,2.95
2023-01-29T14:29:33.766Z,2.67
2023-01-29T14:32:14.103Z,2.47
2023-01-29T14:34:45.397Z,4.53
2023-01-29T14:37:23.049Z,3.78
2023-01-29T14:39:52.798Z,2.63
2023-01-29T14:42:26.911Z,3.42
2023-01-29T14:45:09.192Z,2.00
2023-01-29T14:47:55.765Z,2.42
2023-01-29T14:50:49.254Z,3.35
2023-01-29T14:53:23.202Z,2.70
2023-01-29T14:55:57.083Z,2.15
2023-01-29T14:58:34.544Z,2.33
2023-01-29T15:01:03.255Z,2.28
2023-01-29T15:03:40.593Z,2.35
2023-01-29T15:06:16.494Z,2.25
2023-01-29T15:08:49.804Z,2.20
2023-01-29T15:11:35.712Z,2.30
2023-01-29T15:14:30.076Z,2.50
2023-01-29T15:17:07.167Z,2.72
2023-01-29T15:19:37.972Z,2.13
2023-01-29T15:22:16.017Z,2.30
2023-01-29T15:24:45.163Z,2.00
2023-01-29T15:27:17.346Z,2.60
2023-01-29T15:29:51.699Z,2.13
2023-01-29T15:32:29.798Z,2.60
2023-01-29T15:34:59.012Z,2.10
2023-01-29T15:37:28.916Z,2.85
2023-01-29T15:39:57.416Z,4.88
2023-01-29T15:42:28.131Z,2.92
2023-01-29T15:44:57.413Z,2.75
2023-01-29T15:47:29.329Z,2.60
2023-01-29T15:49:58.371Z,2.50
2023-01-29T15:52:30.306Z,2.30
2023-01-29T15:55:02.887Z,2.80
2023-01-29T15:57:38.277Z,2.78
2023-01-29T16:00:21.163Z,2.20
2023-01-29T16:02:50.205Z,2.15
2023-01-29T16:05:22.059Z,2.50
2023-01-29T16:07:51.177Z,2.33
2023-01-29T16:10:21.770Z,2.60
2023-01-29T16:12:52.353Z,2.40
2023-01-29T16:15:32.307Z,1.92
2023-01-29T16:18:01.564Z,2.75
2023-01-29T16:20:37.573Z,2.78
2023-01-29T16:23:07.289Z,2.67
2023-01-29T16:25:38.784Z,2.45
2023-01-29T16:28:10.986Z,2.10
2023-01-29T16:30:41.481Z,2.45
2023-01-29T16:33:14.135Z,2.25
2023-01-29T16:35:42.911Z,2.30
2023-01-29T16:38:27.770Z,2.55
2023-01-29T16:41:15.334Z,2.45
2023-01-29T16:43:52.685Z,2.80
2023-01-29T16:46:26.465Z,2.47
2023-01-29T16:48:54.900Z,2.28
2023-01-29T16:51:26.868Z,2.63
2023-01-29T16:53:58.149Z,2.40
2023-01-29T16:56:28.783Z,2.53
2023-01-29T16:58:56.894Z,2.50
2023-01-29T17:01:29.761Z,2.10
2023-01-29T17:04:03.136Z,2.47
2023-01-29T17:06:32.832Z,2.33
2023-01-29T17:09:01.609Z,2.20
2023-01-29T17:11:35.677Z,2.53
2023-01-29T17:14:04.104Z,2.53
2023-01-29T17:16:35.410Z,2.10
2023-01-29T17:19:07.532Z,1.90
2023-01-29T17:21:35.323Z,2.10
2023-01-29T17:24:03.159Z,2.38
2023-01-29T17:26:32.474Z,2.35
2023-01-29T17:29:00.287Z,2.65
2023-01-29T17:31:28.439Z,2.40
2023-01-29T17:33:58.437Z,2.25
2023-01-29T17:36:27.146Z,2.55
2023-01-29T17:38:54.920Z,2.15
2023-01-29T17:41:26.636Z,2.40
2023-01-29T17:43:54.510Z,2.30
2023-01-29T17:46:22.764Z,2.58
2023-01-29T17:48:50.702Z,3.22
2023-01-29T17:51:20.211Z,2.20
2023-01-29T17:53:48.874Z,2.50
2023-01-29T17:56:18.943Z,2.40
2023-01-29T17:58:46.946Z,2.58
2023-01-29T18:01:14.753Z,2.00
2023-01-29T18:03:42.672Z,2.72
2023-01-29T18:06:12.817Z,2.83
2023-01-29T18:08:41.982Z,2.30
2023-01-29T18:11:11.971Z,2.22
2023-01-29T18:13:41.970Z,2.50
2023-01-29T18:16:09.939Z,2.03
2023-01-29T18:18:37.723Z,2.13
2023-01-29T18:21:05.892Z,2.28
2023-01-29T18:23:33.603Z,1.92
2023-01-29T18:26:02.767Z,2.03
2023-01-29T18:28:31.399Z,1.90
2023-01-29T18:30:59.177Z,2.20
2023-01-29T18:33:27.049Z,1.80
2023-01-29T18:35:55.061Z,2.33
2023-01-29T18:38:22.928Z,2.10
2023-01-29T18:40:50.941Z,2.05
2023-01-29T18:43:20.144Z,2.13
2023-01-29T18:45:48.802Z,2.38
2023-01-29T18:48:16.631Z,2.30
2023-01-29T18:50:44.375Z,2.05
2023-01-29T18:53:12.121Z,2.28
2023-01-29T18:55:39.991Z,1.90
2023-01-29T18:58:27.239Z,2.38
2023-01-29T19:00:56.917Z,1.80
2023-01-29T19:03:25.005Z,2.42
2023-01-29T19:05:53.070Z,2.25
2023-01-29T19:08:20.875Z,2.15
2023-01-29T19:10:48.630Z,2.90
2023-01-29T19:13:16.386Z,1.80
2023-01-29T19:15:45.140Z,2.30
2023-01-29T19:18:14.889Z,2.40
2023-01-29T19:20:43.037Z,2.15
2023-01-29T19:23:10.890Z,2.25
2023-01-29T19:25:39.314Z,2.15
2023-01-29T19:28:08.886Z,1.80
2023-01-29T19:30:36.804Z,2.55
2023-01-29T19:33:04.883Z,1.98
2023-01-29T19:35:34.047Z,2.05
2023-01-29T19:38:02.019Z,2.17
2023-01-29T19:40:29.770Z,2.00
2023-01-29T19:42:58.461Z,2.28
2023-01-29T19:45:49.194Z,1.98
2023-01-29T19:48:14.935Z,2.13
2023-01-29T19:50:44.072Z,2.20
2023-01-29T19:53:11.815Z,1.92
2023-01-29T19:55:40.513Z,2.00
2023-01-29T19:58:10.424Z,2.10
2023-01-29T20:00:38.247Z,2.30
2023-01-29T20:03:06.305Z,2.65
2023-01-29T20:05:37.454Z,2.35
2023-01-29T20:08:06.986Z,1.83
2023-01-29T20:10:34.742Z,2.17
2023-01-29T20:13:02.760Z,2.15
2023-01-29T20:15:30.684Z,2.20
2023-01-29T20:17:58.928Z,2.00
2023-01-29T20:20:29.873Z,2.63
2023-01-29T20:23:01.467Z,2.47
2023-01-29T20:25:31.333Z,2.20
2023-01-29T20:27:59.086Z,2.17
2023-01-29T20:30:26.957Z,2.00
2023-01-29T20:32:54.745Z,2.30
2023-01-29T20:35:22.580Z,2.10
2023-01-29T20:37:50.357Z,2.13
2023-01-29T20:40:18.876Z,1.80
2023-01-29T20:42:48.624Z,2.00
2023-01-29T20:45:16.663Z,2.00
2023-01-29T20:47:44.624Z,1.77
2023-01-29T20:50:14.920Z,2.25
2023-01-29T20:52:43.424Z,2.20
2023-01-29T20:55:12.691Z,2.00
2023-01-29T20:57:40.804Z,2.00
2023-01-29T21:00:12.535Z,2.28
2023-01-29T21:02:40.312Z,2.40
2023-01-29T21:05:08.673Z,2.38
2023-01-29T21:07:37.122Z,2.22
2023-01-29T21:10:05.290Z,1.90
2023-01-29T21:12:33.085Z,2.20
2023-01-29T21:15:01.091Z,2.40
2023-01-29T21:17:30.129Z,1.80
2023-01-29T21:19:57.899Z,2.00
2023-01-29T21:22:25.662Z,2.38
2023-01-29T21:24:53.419Z,2.80
2023-01-29T21:27:21.147Z,2.20
2023-01-29T21:29:49.398Z,2.20
2023-01-29T21:32:18.255Z,2.10
2023-01-29T21:34:47.442Z,2.30
2023-01-29T21:37:15.258Z,2.05
2023-01-29T21:39:43.131Z,2.15
2023-01-29T21:42:28.618Z,2.60
2023-01-29T21:44:56.476Z,3.88
2023-01-29T21:47:24.464Z,2.38
2023-01-29T21:49:53.684Z,2.10
2023-01-29T21:52:21.465Z,2.30
2023-01-29T21:54:49.769Z,2.33
2023-01-29T21:57:18.311Z,2.25
2023-01-29T21:59:47.171Z,2.53
2023-01-29T22:02:22.038Z,2.15
2023-01-29T22:04:50.310Z,2.03
2023-01-29T22:07:19.422Z,1.92
2023-01-29T22:09:47.343Z,2.05
2023-01-29T22:12:15.519Z,2.38
2023-01-29T22:14:43.397Z,2.50
2023-01-29T22:17:11.236Z,2.28
2023-01-29T22:19:39.028Z,2.10
2023-01-29T22:22:07.822Z,2.22
2023-01-29T22:24:36.956Z,2.22
2023-01-29T22:27:04.793Z,2.40
2023-01-29T22:29:32.565Z,2.50
2023-01-29T22:32:00.442Z,2.42
2023-01-29T22:34:28.465Z,2.50
2023-01-29T22:36:56.267Z,2.35
2023-01-29T22:39:24.078Z,2.33
2023-01-29T22:41:53.349Z,3.05
2023-01-29T22:44:21.153Z,2.10
2023-01-29T22:46:49.016Z,2.83
2023-01-29T22:49:16.792Z,2.13
2023-01-29T22:51:44.623Z,2.40
2023-01-29T22:54:12.582Z,2.20
2023-01-29T22:56:40.346Z,2.30
2023-01-29T22:59:11.113Z,2.35
2023-01-29T23:01:38.938Z,2.25
2023-01-29T23:04:06.710Z,2.67
2023-01-29T23:06:36.735Z,2.58
2023-01-29T23:09:04.541Z,1.90
2023-01-29T23:11:32.356Z,2.10
2023-01-29T23:14:00.135Z,1.88
2023-01-29T23:16:29.759Z,1.90
2023-01-29T23:18:57.929Z,2.03
2023-01-29T23:21:27.263Z,2.45
2023-01-29T23:23:55.400Z,2.10
2023-01-29T23:26:40.683Z,2.25
2023-01-29T23:29:08.597Z,2.10
2023-01-29T23:31:37.830Z,2.28
2023-01-29T23:34:05.602Z,1.92
2023-01-29T23:36:33.418Z,2.05
2023-01-29T23:39:01.511Z,1.98
2023-01-29T23:41:29.389Z,2.03
2023-01-29T23:43:57.155Z,1.90
2023-01-29T23:46:25.011Z,1.95
2023-01-29T23:48:54.104Z,1.92
2023-01-29T23:51:21.910Z,1.85
2023-01-29T23:53:49.687Z,1.95
2023-01-29T23:56:17.451Z,1.90
2023-01-29T23:58:46.091Z,1.40
